Whiteford, Maryland
Current Conditions -  °F | °C
As of 10:55 AM on Friday 24 Oct 2014 (Local Time) from KMTN Reporting Station
Scattered Clouds Scattered Clouds  
Wind Chill: 63°   Ceiling: Unl
Heat Index: 63°   Visibility: 10mi
Dew Point: 48°   Wind: 16mph
Humidity: 59%   Direction: 270°W
Pressure: 29.95"   Gusts: NA
Location:  39.71°N, 76.35°W
Report Text: KMTN 241455Z 27014KT 10SM SCT200 17/09 A2995
Loading
Personal Weather Stations






























Interactive Weather Map
Tropical Storm Tracking
New forecast layout! Learn more

10-Day Weather Forecast

Advertisements
Track Severe Weather on mobile